sensor_id;sensor_type;location;lat;lon;timestamp;pressure;altitude;pressure_sealevel;temperature;humidity
39223;BME280;24936;46.328;11.026;2023-02-04T00:01:31;94650.84;;;7.35;55.22
39223;BME280;24936;46.328;11.026;2023-02-04T00:03:56;94635.16;;;7.58;54.73
39223;BME280;24936;46.328;11.026;2023-02-04T00:06:22;94635.72;;;7.39;54.82
39223;BME280;24936;46.328;11.026;2023-02-04T00:08:47;94644.16;;;7.31;55.38
39223;BME280;24936;46.328;11.026;2023-02-04T00:11:12;94624.06;;;7.43;54.20
39223;BME280;24936;46.328;11.026;2023-02-04T00:13:38;94607.16;;;7.47;55.00
39223;BME280;24936;46.328;11.026;2023-02-04T00:16:03;94629.38;;;7.18;55.46
39223;BME280;24936;46.328;11.026;2023-02-04T00:18:29;94630.31;;;7.06;56.15
39223;BME280;24936;46.328;11.026;2023-02-04T00:20:54;94626.59;;;7.09;56.22
39223;BME280;24936;46.328;11.026;2023-02-04T00:23:20;94618.50;;;7.00;55.83
39223;BME280;24936;46.328;11.026;2023-02-04T00:25:45;94618.97;;;7.06;55.23
39223;BME280;24936;46.328;11.026;2023-02-04T00:28:11;94614.81;;;7.03;56.49
39223;BME280;24936;46.328;11.026;2023-02-04T00:30:36;94609.94;;;6.98;56.62
39223;BME280;24936;46.328;11.026;2023-02-04T00:33:02;94608.25;;;6.97;56.04
39223;BME280;24936;46.328;11.026;2023-02-04T00:35:27;94594.81;;;7.02;56.30
39223;BME280;24936;46.328;11.026;2023-02-04T00:37:53;94595.53;;;6.93;56.43
39223;BME280;24936;46.328;11.026;2023-02-04T00:40:18;94615.63;;;7.03;54.57
39223;BME280;24936;46.328;11.026;2023-02-04T00:42:44;94616.50;;;7.04;55.80
39223;BME280;24936;46.328;11.026;2023-02-04T00:45:10;94620.84;;;6.92;56.28
39223;BME280;24936;46.328;11.026;2023-02-04T00:47:36;94630.94;;;6.85;55.73
39223;BME280;24936;46.328;11.026;2023-02-04T00:50:02;94640.19;;;6.78;56.07
39223;BME280;24936;46.328;11.026;2023-02-04T00:52:27;94634.38;;;6.86;56.36
39223;BME280;24936;46.328;11.026;2023-02-04T00:54:53;94637.03;;;6.97;55.05
39223;BME280;24936;46.328;11.026;2023-02-04T00:57:18;94648.44;;;7.21;54.32
39223;BME280;24936;46.328;11.026;2023-02-04T00:59:44;94646.47;;;7.11;55.59
39223;BME280;24936;46.328;11.026;2023-02-04T01:02:09;94636.31;;;6.95;55.18
39223;BME280;24936;46.328;11.026;2023-02-04T01:04:34;94637.72;;;6.88;55.60
39223;BME280;24936;46.328;11.026;2023-02-04T01:07:00;94627.50;;;6.85;55.68
39223;BME280;24936;46.328;11.026;2023-02-04T01:09:25;94631.19;;;6.82;54.99
39223;BME280;24936;46.328;11.026;2023-02-04T01:11:51;94643.19;;;6.85;54.30
39223;BME280;24936;46.328;11.026;2023-02-04T01:14:16;94620.66;;;7.18;53.88
39223;BME280;24936;46.328;11.026;2023-02-04T01:16:42;94611.50;;;7.12;53.44
39223;BME280;24936;46.328;11.026;2023-02-04T01:19:07;94622.41;;;6.95;54.07
39223;BME280;24936;46.328;11.026;2023-02-04T01:21:33;94626.31;;;6.89;53.90
39223;BME280;24936;46.328;11.026;2023-02-04T01:23:58;94620.59;;;6.84;54.59
39223;BME280;24936;46.328;11.026;2023-02-04T01:26:23;94628.78;;;6.79;53.78
39223;BME280;24936;46.328;11.026;2023-02-04T01:28:49;94641.44;;;6.61;54.19
39223;BME280;24936;46.328;11.026;2023-02-04T01:31:15;94634.06;;;6.66;54.24
39223;BME280;24936;46.328;11.026;2023-02-04T01:33:41;94638.94;;;6.71;54.99
39223;BME280;24936;46.328;11.026;2023-02-04T01:36:07;94639.09;;;7.05;52.38
39223;BME280;24936;46.328;11.026;2023-02-04T01:38:32;94636.56;;;7.03;52.94
39223;BME280;24936;46.328;11.026;2023-02-04T01:40:58;94622.47;;;6.82;53.60
39223;BME280;24936;46.328;11.026;2023-02-04T01:43:23;94620.81;;;7.16;50.72
39223;BME280;24936;46.328;11.026;2023-02-04T01:45:50;94629.00;;;7.12;51.74
39223;BME280;24936;46.328;11.026;2023-02-04T01:48:16;94620.22;;;7.24;49.96
39223;BME280;24936;46.328;11.026;2023-02-04T01:51:06;94608.22;;;7.22;50.22
39223;BME280;24936;46.328;11.026;2023-02-04T01:53:34;94615.69;;;7.15;50.55
39223;BME280;24936;46.328;11.026;2023-02-04T01:56:01;94611.19;;;7.17;49.87
39223;BME280;24936;46.328;11.026;2023-02-04T01:58:35;94620.97;;;7.60;47.31
39223;BME280;24936;46.328;11.026;2023-02-04T02:01:05;94610.75;;;7.69;46.67
39223;BME280;24936;46.328;11.026;2023-02-04T02:03:35;94610.75;;;7.91;48.19
39223;BME280;24936;46.328;11.026;2023-02-04T02:06:00;94627.19;;;7.93;46.20
39223;BME280;24936;46.328;11.026;2023-02-04T02:08:26;94632.41;;;7.59;47.61
39223;BME280;24936;46.328;11.026;2023-02-04T02:10:51;94628.50;;;7.99;45.55
39223;BME280;24936;46.328;11.026;2023-02-04T02:13:35;94605.16;;;8.07;45.38
39223;BME280;24936;46.328;11.026;2023-02-04T02:16:01;94601.72;;;8.51;43.53
39223;BME280;24936;46.328;11.026;2023-02-04T02:18:26;94609.16;;;8.23;44.59
39223;BME280;24936;46.328;11.026;2023-02-04T02:20:52;94622.41;;;8.21;45.21
39223;BME280;24936;46.328;11.026;2023-02-04T02:23:53;94615.34;;;8.22;44.64
39223;BME280;24936;46.328;11.026;2023-02-04T02:26:21;94581.34;;;7.76;51.50
39223;BME280;24936;46.328;11.026;2023-02-04T02:28:47;94592.63;;;7.31;50.29
39223;BME280;24936;46.328;11.026;2023-02-04T02:31:14;94599.50;;;6.74;50.06
39223;BME280;24936;46.328;11.026;2023-02-04T02:33:40;94585.31;;;7.01;51.66
39223;BME280;24936;46.328;11.026;2023-02-04T02:36:06;94592.84;;;7.17;48.12
39223;BME280;24936;46.328;11.026;2023-02-04T02:38:31;94601.16;;;7.11;48.58
39223;BME280;24936;46.328;11.026;2023-02-04T02:40:57;94584.47;;;6.89;50.42
39223;BME280;24936;46.328;11.026;2023-02-04T02:43:25;94596.34;;;6.93;51.15
39223;BME280;24936;46.328;11.026;2023-02-04T02:45:52;94582.69;;;7.01;50.38
39223;BME280;24936;46.328;11.026;2023-02-04T02:48:19;94588.94;;;7.23;50.03
39223;BME280;24936;46.328;11.026;2023-02-04T02:50:44;94587.16;;;7.34;49.09
39223;BME280;24936;46.328;11.026;2023-02-04T02:53:18;94591.66;;;7.21;50.24
39223;BME280;24936;46.328;11.026;2023-02-04T02:55:44;94587.63;;;7.17;48.72
39223;BME280;24936;46.328;11.026;2023-02-04T02:58:17;94564.22;;;7.38;50.24
39223;BME280;24936;46.328;11.026;2023-02-04T03:00:43;94561.94;;;7.45;48.01
39223;BME280;24936;46.328;11.026;2023-02-04T03:03:22;94541.94;;;7.55;48.81
39223;BME280;24936;46.328;11.026;2023-02-04T03:05:53;94541.44;;;7.84;47.14
39223;BME280;24936;46.328;11.026;2023-02-04T03:08:19;94530.47;;;7.90;46.41
39223;BME280;24936;46.328;11.026;2023-02-04T03:10:46;94547.31;;;7.65;46.31
39223;BME280;24936;46.328;11.026;2023-02-04T03:13:13;94543.97;;;7.52;45.91
39223;BME280;24936;46.328;11.026;2023-02-04T03:15:40;94548.59;;;7.71;46.89
39223;BME280;24936;46.328;11.026;2023-02-04T03:18:07;94548.81;;;7.33;47.71
39223;BME280;24936;46.328;11.026;2023-02-04T03:20:33;94561.19;;;7.31;46.95
39223;BME280;24936;46.328;11.026;2023-02-04T03:22:59;94548.06;;;6.97;49.98
39223;BME280;24936;46.328;11.026;2023-02-04T03:25:25;94550.38;;;6.78;48.76
39223;BME280;24936;46.328;11.026;2023-02-04T03:27:53;94567.78;;;6.90;49.30
39223;BME280;24936;46.328;11.026;2023-02-04T03:30:22;94542.16;;;7.18;47.87
39223;BME280;24936;46.328;11.026;2023-02-04T03:32:48;94563.28;;;7.03;50.26
39223;BME280;24936;46.328;11.026;2023-02-04T03:35:13;94560.81;;;7.02;49.89
39223;BME280;24936;46.328;11.026;2023-02-04T03:37:39;94578.50;;;6.87;48.54
39223;BME280;24936;46.328;11.026;2023-02-04T03:40:05;94581.44;;;6.47;51.46
39223;BME280;24936;46.328;11.026;2023-02-04T03:42:30;94588.22;;;6.25;51.87
39223;BME280;24936;46.328;11.026;2023-02-04T03:44:55;94583.84;;;6.25;50.50
39223;BME280;24936;46.328;11.026;2023-02-04T03:47:21;94579.47;;;6.13;50.75
39223;BME280;24936;46.328;11.026;2023-02-04T03:52:49;94612.88;;;6.82;47.42
39223;BME280;24936;46.328;11.026;2023-02-04T03:55:16;94591.88;;;7.18;45.70
39223;BME280;24936;46.328;11.026;2023-02-04T03:57:42;94607.84;;;7.15;49.49
39223;BME280;24936;46.328;11.026;2023-02-04T04:00:10;94590.88;;;6.85;50.88
39223;BME280;24936;46.328;11.026;2023-02-04T04:02:36;94587.09;;;6.40;49.78
39223;BME280;24936;46.328;11.026;2023-02-04T04:05:01;94582.13;;;6.00;52.24
39223;BME280;24936;46.328;11.026;2023-02-04T04:07:26;94592.78;;;5.97;51.22
39223;BME280;24936;46.328;11.026;2023-02-04T04:09:52;94594.56;;;6.58;49.97
39223;BME280;24936;46.328;11.026;2023-02-04T04:12:17;94587.75;;;6.80;48.14
39223;BME280;24936;46.328;11.026;2023-02-04T04:14:43;94570.66;;;6.27;52.53
39223;BME280;24936;46.328;11.026;2023-02-04T04:17:08;94572.59;;;6.12;54.44
39223;BME280;24936;46.328;11.026;2023-02-04T04:19:34;94588.69;;;6.06;53.45
39223;BME280;24936;46.328;11.026;2023-02-04T04:21:59;94574.47;;;6.58;50.85
39223;BME280;24936;46.328;11.026;2023-02-04T04:24:25;94577.75;;;6.25;52.08
39223;BME280;24936;46.328;11.026;2023-02-04T04:26:50;94561.75;;;6.05;52.68
39223;BME280;24936;46.328;11.026;2023-02-04T04:29:16;94563.56;;;6.16;50.55
39223;BME280;24936;46.328;11.026;2023-02-04T04:31:41;94580.75;;;6.56;50.39
39223;BME280;24936;46.328;11.026;2023-02-04T04:34:06;94571.41;;;7.12;47.25
39223;BME280;24936;46.328;11.026;2023-02-04T04:36:32;94570.25;;;7.27;47.43
39223;BME280;24936;46.328;11.026;2023-02-04T04:38:57;94597.84;;;7.31;48.30
39223;BME280;24936;46.328;11.026;2023-02-04T04:41:23;94593.00;;;6.91;50.46
39223;BME280;24936;46.328;11.026;2023-02-04T04:43:49;94594.09;;;7.00;48.87
39223;BME280;24936;46.328;11.026;2023-02-04T04:46:14;94581.41;;;7.18;48.45
39223;BME280;24936;46.328;11.026;2023-02-04T04:48:39;94585.75;;;7.53;46.30
39223;BME280;24936;46.328;11.026;2023-02-04T04:51:05;94597.09;;;7.07;47.21
39223;BME280;24936;46.328;11.026;2023-02-04T04:53:30;94600.94;;;6.78;49.91
39223;BME280;24936;46.328;11.026;2023-02-04T04:55:58;94596.38;;;7.04;47.59
39223;BME280;24936;46.328;11.026;2023-02-04T04:58:24;94600.88;;;7.38;46.92
39223;BME280;24936;46.328;11.026;2023-02-04T05:00:49;94607.94;;;7.13;48.10
39223;BME280;24936;46.328;11.026;2023-02-04T05:03:14;94608.19;;;6.75;51.16
39223;BME280;24936;46.328;11.026;2023-02-04T05:05:40;94625.81;;;6.84;47.95
39223;BME280;24936;46.328;11.026;2023-02-04T05:08:06;94636.44;;;6.94;47.90
39223;BME280;24936;46.328;11.026;2023-02-04T05:10:38;94635.56;;;6.57;50.34
39223;BME280;24936;46.328;11.026;2023-02-04T05:13:03;94642.63;;;6.44;52.11
39223;BME280;24936;46.328;11.026;2023-02-04T05:15:28;94635.63;;;5.81;54.02
39223;BME280;24936;46.328;11.026;2023-02-04T05:17:54;94632.59;;;6.14;54.10
39223;BME280;24936;46.328;11.026;2023-02-04T05:20:19;94647.47;;;6.00;51.76
39223;BME280;24936;46.328;11.026;2023-02-04T05:22:45;94642.34;;;5.47;53.41
39223;BME280;24936;46.328;11.026;2023-02-04T05:25:10;94640.97;;;6.06;52.01
39223;BME280;24936;46.328;11.026;2023-02-04T05:27:35;94629.25;;;6.84;48.88
39223;BME280;24936;46.328;11.026;2023-02-04T05:30:01;94632.56;;;6.75;49.98
39223;BME280;24936;46.328;11.026;2023-02-04T05:32:26;94634.19;;;6.89;49.05
39223;BME280;24936;46.328;11.026;2023-02-04T05:34:52;94643.84;;;6.76;50.62
39223;BME280;24936;46.328;11.026;2023-02-04T05:37:17;94642.22;;;7.10;48.06
39223;BME280;24936;46.328;11.026;2023-02-04T05:39:45;94648.69;;;6.69;50.54
39223;BME280;24936;46.328;11.026;2023-02-04T05:42:11;94643.97;;;6.50;50.53
39223;BME280;24936;46.328;11.026;2023-02-04T05:44:36;94647.47;;;6.86;50.06
39223;BME280;24936;46.328;11.026;2023-02-04T05:47:02;94629.00;;;7.12;47.27
39223;BME280;24936;46.328;11.026;2023-02-04T05:49:27;94628.78;;;7.15;47.37
39223;BME280;24936;46.328;11.026;2023-02-04T05:51:52;94646.00;;;7.06;50.15
39223;BME280;24936;46.328;11.026;2023-02-04T05:54:18;94641.91;;;7.38;47.10
39223;BME280;24936;46.328;11.026;2023-02-04T05:56:46;94642.47;;;7.18;46.63
39223;BME280;24936;46.328;11.026;2023-02-04T05:59:11;94657.66;;;7.49;45.86
39223;BME280;24936;46.328;11.026;2023-02-04T06:01:37;94633.88;;;7.16;46.68
39223;BME280;24936;46.328;11.026;2023-02-04T06:04:02;94641.88;;;7.15;47.84
39223;BME280;24936;46.328;11.026;2023-02-04T06:06:28;94639.00;;;7.18;47.04
39223;BME280;24936;46.328;11.026;2023-02-04T06:08:53;94645.28;;;7.74;44.63
39223;BME280;24936;46.328;11.026;2023-02-04T06:11:18;94642.53;;;7.53;44.96
39223;BME280;24936;46.328;11.026;2023-02-04T06:13:44;94653.16;;;7.74;43.95
39223;BME280;24936;46.328;11.026;2023-02-04T06:16:09;94663.34;;;7.43;45.80
39223;BME280;24936;46.328;11.026;2023-02-04T06:18:35;94655.19;;;6.87;47.13
39223;BME280;24936;46.328;11.026;2023-02-04T06:21:00;94660.53;;;6.37;49.30
39223;BME280;24936;46.328;11.026;2023-02-04T06:23:29;94666.84;;;6.59;49.77
39223;BME280;24936;46.328;11.026;2023-02-04T06:25:54;94668.34;;;6.75;47.88
39223;BME280;24936;46.328;11.026;2023-02-04T06:28:20;94673.38;;;7.13;46.86
39223;BME280;24936;46.328;11.026;2023-02-04T06:30:46;94670.88;;;7.12;47.02
39223;BME280;24936;46.328;11.026;2023-02-04T06:33:13;94652.38;;;6.91;46.24
39223;BME280;24936;46.328;11.026;2023-02-04T06:35:39;94673.25;;;6.79;47.76
39223;BME280;24936;46.328;11.026;2023-02-04T06:38:04;94661.75;;;6.93;47.00
39223;BME280;24936;46.328;11.026;2023-02-04T06:40:29;94647.19;;;6.78;47.05
39223;BME280;24936;46.328;11.026;2023-02-04T06:42:55;94665.91;;;6.60;48.06
39223;BME280;24936;46.328;11.026;2023-02-04T06:45:20;94652.25;;;7.39;46.40
39223;BME280;24936;46.328;11.026;2023-02-04T06:47:45;94667.06;;;7.52;45.11
39223;BME280;24936;46.328;11.026;2023-02-04T06:50:11;94667.94;;;7.86;41.77
39223;BME280;24936;46.328;11.026;2023-02-04T06:52:36;94655.31;;;8.14;41.77
39223;BME280;24936;46.328;11.026;2023-02-04T06:55:02;94668.88;;;8.31;40.71
39223;BME280;24936;46.328;11.026;2023-02-04T06:57:27;94649.53;;;8.43;40.33
39223;BME280;24936;46.328;11.026;2023-02-04T06:59:53;94653.88;;;7.99;41.46
39223;BME280;24936;46.328;11.026;2023-02-04T07:02:18;94632.81;;;7.89;42.23
39223;BME280;24936;46.328;11.026;2023-02-04T07:04:47;94641.16;;;7.24;43.81
39223;BME280;24936;46.328;11.026;2023-02-04T07:07:13;94632.31;;;8.18;40.61
39223;BME280;24936;46.328;11.026;2023-02-04T07:09:38;94642.69;;;7.96;41.31
39223;BME280;24936;46.328;11.026;2023-02-04T07:12:04;94641.63;;;7.65;43.54
39223;BME280;24936;46.328;11.026;2023-02-04T07:14:30;94627.28;;;7.46;42.29
39223;BME280;24936;46.328;11.026;2023-02-04T07:16:55;94642.06;;;7.47;41.67
39223;BME280;24936;46.328;11.026;2023-02-04T07:19:22;94601.09;;;7.24;46.85
39223;BME280;24936;46.328;11.026;2023-02-04T07:21:48;94612.16;;;7.27;44.23
39223;BME280;24936;46.328;11.026;2023-02-04T07:24:18;94609.19;;;7.32;46.71
39223;BME280;24936;46.328;11.026;2023-02-04T07:26:43;94615.19;;;7.79;41.65
39223;BME280;24936;46.328;11.026;2023-02-04T07:29:09;94622.84;;;8.38;41.27
39223;BME280;24936;46.328;11.026;2023-02-04T07:31:37;94622.28;;;8.11;41.93
39223;BME280;24936;46.328;11.026;2023-02-04T07:34:02;94601.59;;;8.64;37.22
39223;BME280;24936;46.328;11.026;2023-02-04T07:36:27;94601.41;;;8.55;37.37
39223;BME280;24936;46.328;11.026;2023-02-04T07:38:53;94613.09;;;8.51;39.33
39223;BME280;24936;46.328;11.026;2023-02-04T07:41:18;94609.00;;;8.59;40.62
39223;BME280;24936;46.328;11.026;2023-02-04T07:43:45;94603.63;;;8.93;36.57
39223;BME280;24936;46.328;11.026;2023-02-04T07:46:10;94607.72;;;9.28;35.23
39223;BME280;24936;46.328;11.026;2023-02-04T07:48:36;94625.16;;;9.29;35.38
39223;BME280;24936;46.328;11.026;2023-02-04T07:51:01;94618.06;;;9.20;35.30
39223;BME280;24936;46.328;11.026;2023-02-04T07:53:27;94595.69;;;9.04;36.59
39223;BME280;24936;46.328;11.026;2023-02-04T07:55:52;94592.75;;;9.40;35.07
39223;BME280;24936;46.328;11.026;2023-02-04T07:58:17;94590.97;;;9.71;35.01
39223;BME280;24936;46.328;11.026;2023-02-04T08:00:43;94613.28;;;9.56;34.05
39223;BME280;24936;46.328;11.026;2023-02-04T08:03:08;94605.28;;;9.57;36.78
39223;BME280;24936;46.328;11.026;2023-02-04T08:05:34;94603.63;;;9.35;37.26
39223;BME280;24936;46.328;11.026;2023-02-04T08:08:00;94614.66;;;9.29;36.61
39223;BME280;24936;46.328;11.026;2023-02-04T08:10:26;94607.16;;;9.45;38.06
39223;BME280;24936;46.328;11.026;2023-02-04T08:12:51;94613.91;;;9.38;37.90
39223;BME280;24936;46.328;11.026;2023-02-04T08:15:17;94612.06;;;9.60;34.09
39223;BME280;24936;46.328;11.026;2023-02-04T08:17:42;94607.63;;;9.82;35.07
39223;BME280;24936;46.328;11.026;2023-02-04T08:20:08;94607.88;;;10.09;33.13
39223;BME280;24936;46.328;11.026;2023-02-04T08:22:34;94605.91;;;10.02;32.96
39223;BME280;24936;46.328;11.026;2023-02-04T08:24:59;94607.94;;;9.88;33.63
39223;BME280;24936;46.328;11.026;2023-02-04T08:27:25;94612.50;;;9.86;33.74
39223;BME280;24936;46.328;11.026;2023-02-04T08:29:50;94614.72;;;9.91;35.19
39223;BME280;24936;46.328;11.026;2023-02-04T08:32:16;94619.78;;;9.83;34.13
39223;BME280;24936;46.328;11.026;2023-02-04T08:34:41;94605.91;;;10.02;34.34
39223;BME280;24936;46.328;11.026;2023-02-04T08:37:08;94623.47;;;10.01;33.02
39223;BME280;24936;46.328;11.026;2023-02-04T08:39:33;94624.31;;;10.02;32.14
39223;BME280;24936;46.328;11.026;2023-02-04T08:41:58;94620.03;;;10.10;32.38
39223;BME280;24936;46.328;11.026;2023-02-04T08:44:24;94612.13;;;10.01;33.09
39223;BME280;24936;46.328;11.026;2023-02-04T08:46:49;94612.06;;;10.22;32.88
39223;BME280;24936;46.328;11.026;2023-02-04T08:49:14;94608.97;;;10.67;31.55
39223;BME280;24936;46.328;11.026;2023-02-04T08:51:40;94617.03;;;10.95;31.21
39223;BME280;24936;46.328;11.026;2023-02-04T08:54:05;94625.34;;;10.81;32.12
39223;BME280;24936;46.328;11.026;2023-02-04T08:56:30;94618.41;;;10.60;31.41
39223;BME280;24936;46.328;11.026;2023-02-04T08:58:57;94616.78;;;10.79;32.61
39223;BME280;24936;46.328;11.026;2023-02-04T09:01:22;94614.94;;;11.28;31.15
39223;BME280;24936;46.328;11.026;2023-02-04T09:03:48;94600.78;;;11.87;29.13
39223;BME280;24936;46.328;11.026;2023-02-04T09:06:13;94607.69;;;12.99;27.38
39223;BME280;24936;46.328;11.026;2023-02-04T09:08:38;94600.78;;;13.87;27.71
39223;BME280;24936;46.328;11.026;2023-02-04T09:11:04;94618.63;;;13.85;25.56
39223;BME280;24936;46.328;11.026;2023-02-04T09:13:30;94611.06;;;14.33;24.84
39223;BME280;24936;46.328;11.026;2023-02-04T09:15:56;94608.28;;;14.78;24.61
39223;BME280;24936;46.328;11.026;2023-02-04T09:18:22;94625.78;;;13.93;24.63
39223;BME280;24936;46.328;11.026;2023-02-04T09:20:50;94620.03;;;14.92;24.34
39223;BME280;24936;46.328;11.026;2023-02-04T09:23:16;94622.50;;;14.85;24.15
39223;BME280;24936;46.328;11.026;2023-02-04T09:25:42;94629.19;;;15.14;25.85
39223;BME280;24936;46.328;11.026;2023-02-04T09:28:09;94631.44;;;14.84;23.39
39223;BME280;24936;46.328;11.026;2023-02-04T09:30:38;94640.81;;;15.38;24.05
39223;BME280;24936;46.328;11.026;2023-02-04T09:33:04;94646.28;;;15.28;23.62
39223;BME280;24936;46.328;11.026;2023-02-04T09:35:30;94645.44;;;15.69;23.30
39223;BME280;24936;46.328;11.026;2023-02-04T09:37:55;94658.69;;;16.18;22.85
39223;BME280;24936;46.328;11.026;2023-02-04T09:40:20;94656.81;;;17.38;21.86
39223;BME280;24936;46.328;11.026;2023-02-04T09:42:48;94657.63;;;17.62;21.83
39223;BME280;24936;46.328;11.026;2023-02-04T09:45:23;94661.97;;;16.77;21.51
39223;BME280;24936;46.328;11.026;2023-02-04T09:47:50;94660.44;;;17.46;20.71
39223;BME280;24936;46.328;11.026;2023-02-04T09:50:21;94667.78;;;17.35;21.94
39223;BME280;24936;46.328;11.026;2023-02-04T09:52:49;94674.25;;;18.41;21.56
39223;BME280;24936;46.328;11.026;2023-02-04T09:55:17;94676.66;;;17.74;21.53
39223;BME280;24936;46.328;11.026;2023-02-04T09:57:43;94681.19;;;18.12;21.91
39223;BME280;24936;46.328;11.026;2023-02-04T10:00:15;94699.78;;;18.50;21.99
39223;BME280;24936;46.328;11.026;2023-02-04T10:02:41;94695.88;;;20.14;21.18
39223;BME280;24936;46.328;11.026;2023-02-04T10:05:13;94694.31;;;18.13;20.43
39223;BME280;24936;46.328;11.026;2023-02-04T10:07:39;94696.56;;;18.85;21.03
39223;BME280;24936;46.328;11.026;2023-02-04T10:10:05;94687.81;;;20.08;19.34
39223;BME280;24936;46.328;11.026;2023-02-04T10:12:30;94697.13;;;18.80;17.67
39223;BME280;24936;46.328;11.026;2023-02-04T10:14:56;94690.28;;;19.44;20.58
39223;BME280;24936;46.328;11.026;2023-02-04T10:17:22;94700.53;;;19.84;18.20
39223;BME280;24936;46.328;11.026;2023-02-04T10:19:47;94705.25;;;19.60;20.93
39223;BME280;24936;46.328;11.026;2023-02-04T10:22:18;94706.81;;;20.76;20.95
39223;BME280;24936;46.328;11.026;2023-02-04T10:27:12;94714.72;;;20.35;21.49
39223;BME280;24936;46.328;11.026;2023-02-04T10:29:40;94710.22;;;19.63;16.50
39223;BME280;24936;46.328;11.026;2023-02-04T10:32:24;94707.00;;;19.31;20.08
39223;BME280;24936;46.328;11.026;2023-02-04T10:34:56;94711.25;;;18.80;19.80
39223;BME280;24936;46.328;11.026;2023-02-04T10:37:22;94716.53;;;18.06;18.65
39223;BME280;24936;46.328;11.026;2023-02-04T10:39:48;94711.63;;;18.62;20.01
39223;BME280;24936;46.328;11.026;2023-02-04T10:42:24;94712.09;;;16.80;20.99
39223;BME280;24936;46.328;11.026;2023-02-04T10:44:50;94706.63;;;17.91;19.93
39223;BME280;24936;46.328;11.026;2023-02-04T10:47:16;94710.25;;;18.67;17.97
39223;BME280;24936;46.328;11.026;2023-02-04T10:49:53;94714.66;;;18.29;18.59
39223;BME280;24936;46.328;11.026;2023-02-04T10:52:21;94717.69;;;18.41;21.07
39223;BME280;24936;46.328;11.026;2023-02-04T10:54:48;94695.75;;;17.78;21.90
39223;BME280;24936;46.328;11.026;2023-02-04T10:57:21;94709.34;;;18.74;18.95
39223;BME280;24936;46.328;11.026;2023-02-04T10:59:50;94705.56;;;18.54;19.04
39223;BME280;24936;46.328;11.026;2023-02-04T11:02:32;94698.06;;;19.82;20.57
39223;BME280;24936;46.328;11.026;2023-02-04T11:05:00;94703.81;;;18.76;17.57
39223;BME280;24936;46.328;11.026;2023-02-04T11:07:26;94702.59;;;17.95;20.78
39223;BME280;24936;46.328;11.026;2023-02-04T11:09:51;94698.59;;;18.98;19.63
39223;BME280;24936;46.328;11.026;2023-02-04T11:12:22;94695.34;;;18.27;17.63
39223;BME280;24936;46.328;11.026;2023-02-04T11:14:57;94686.53;;;19.02;16.07
39223;BME280;24936;46.328;11.026;2023-02-04T11:17:30;94694.84;;;19.87;16.11
39223;BME280;24936;46.328;11.026;2023-02-04T11:19:56;94683.91;;;19.23;17.12
39223;BME280;24936;46.328;11.026;2023-02-04T11:22:23;94687.81;;;17.23;16.57
39223;BME280;24936;46.328;11.026;2023-02-04T11:24:49;94691.50;;;19.05;18.93
39223;BME280;24936;46.328;11.026;2023-02-04T11:27:24;94675.63;;;18.67;18.51
39223;BME280;24936;46.328;11.026;2023-02-04T11:30:29;94667.59;;;18.07;16.88
39223;BME280;24936;46.328;11.026;2023-02-04T11:33:02;94681.13;;;18.50;18.58
39223;BME280;24936;46.328;11.026;2023-02-04T11:35:28;94684.91;;;18.71;18.08
39223;BME280;24936;46.328;11.026;2023-02-04T11:37:55;94674.59;;;19.34;16.84
39223;BME280;24936;46.328;11.026;2023-02-04T11:40:24;94675.31;;;19.06;17.57
39223;BME280;24936;46.328;11.026;2023-02-04T11:45:29;94659.69;;;17.98;16.99
39223;BME280;24936;46.328;11.026;2023-02-04T11:47:57;94673.63;;;19.20;17.05
39223;BME280;24936;46.328;11.026;2023-02-04T11:50:31;94666.88;;;17.89;16.42
39223;BME280;24936;46.328;11.026;2023-02-04T11:52:58;94668.44;;;17.84;19.32
39223;BME280;24936;46.328;11.026;2023-02-04T11:55:27;94664.78;;;17.62;18.22
39223;BME280;24936;46.328;11.026;2023-02-04T11:57:54;94663.38;;;18.12;16.51
39223;BME280;24936;46.328;11.026;2023-02-04T12:00:26;94660.03;;;19.15;19.03
39223;BME280;24936;46.328;11.026;2023-02-04T12:03:02;94653.81;;;18.78;18.35
39223;BME280;24936;46.328;11.026;2023-02-04T12:05:40;94657.69;;;19.27;16.84
39223;BME280;24936;46.328;11.026;2023-02-04T12:08:51;94663.72;;;19.58;15.93
39223;BME280;24936;46.328;11.026;2023-02-04T12:11:10;94664.44;;;19.66;15.95
39223;BME280;24936;46.328;11.026;2023-02-04T12:13:48;94655.50;;;19.52;17.43
39223;BME280;24936;46.328;11.026;2023-02-04T12:16:14;94637.41;;;20.61;15.49
39223;BME280;24936;46.328;11.026;2023-02-04T12:18:40;94636.81;;;20.31;16.37
39223;BME280;24936;46.328;11.026;2023-02-04T12:21:05;94644.94;;;20.80;13.27
39223;BME280;24936;46.328;11.026;2023-02-04T12:23:31;94639.34;;;20.39;15.45
39223;BME280;24936;46.328;11.026;2023-02-04T12:25:56;94639.81;;;19.06;14.03
39223;BME280;24936;46.328;11.026;2023-02-04T12:28:22;94637.78;;;18.26;16.91
39223;BME280;24936;46.328;11.026;2023-02-04T12:30:48;94637.97;;;18.91;16.31
39223;BME280;24936;46.328;11.026;2023-02-04T12:33:13;94640.81;;;19.05;19.45
39223;BME280;24936;46.328;11.026;2023-02-04T12:35:39;94636.00;;;18.63;17.62
39223;BME280;24936;46.328;11.026;2023-02-04T12:38:04;94649.88;;;18.29;16.44
39223;BME280;24936;46.328;11.026;2023-02-04T12:40:30;94629.41;;;17.99;14.87
39223;BME280;24936;46.328;11.026;2023-02-04T12:42:55;94622.78;;;17.72;16.15
39223;BME280;24936;46.328;11.026;2023-02-04T12:45:21;94624.72;;;18.16;15.80
39223;BME280;24936;46.328;11.026;2023-02-04T12:47:46;94629.78;;;18.56;14.14
39223;BME280;24936;46.328;11.026;2023-02-04T12:50:14;94622.75;;;18.85;17.78
39223;BME280;24936;46.328;11.026;2023-02-04T12:52:40;94617.59;;;18.99;14.65
39223;BME280;24936;46.328;11.026;2023-02-04T12:55:06;94613.81;;;18.26;13.86
39223;BME280;24936;46.328;11.026;2023-02-04T12:57:33;94618.31;;;19.29;13.80
39223;BME280;24936;46.328;11.026;2023-02-04T12:59:59;94615.28;;;18.44;15.05
39223;BME280;24936;46.328;11.026;2023-02-04T13:02:28;94608.78;;;17.78;14.62
39223;BME280;24936;46.328;11.026;2023-02-04T13:04:55;94614.31;;;17.53;12.11